Mackinaw, IL (61755)

11:21 AM CST on February 10, 2016 (GMT -0600)
Lakes at Oak Valley | | Change Station
CLOSE
Current Station
Personal Weather Station
Location: Deer Creek, IL
Elevation: 732 ft
Nearby Weather Stations

Elev 732 ft 40.61 °N, 89.27 °W | Updated 6 minutes ago

Partly Cloudy
Partly Cloudy
17.0 °F
Feels Like 17 °F
N
0.0
Wind Variable Wind from ENE
Gusts 1.0 mph

Today
High -- | Low -- °F
--% Chance of Precip.
Yesterday
High -- | Low -- °F
Precip. -- in
Pressure 30.17 in
Visibility 10.0 miles
Clouds Clear
Windchill 17 °F
Dew Point 6 °F
Humidity 61%
Rainfall 0.00 in
Snow Depth Not available.
6:57 AM 5:25 PM
Waxing Crescent, 6% visible
METAR KPIA 101654Z 31008G16KT 10SM CLR M09/M17 A3013 RMK AO2 SLP217 T10891167
Pressure 30.17 in
Visibility 10.0 miles
Clouds Clear
Windchill 17 °F
Dew Point 6 °F
Humidity 61%
Rainfall 0.00 in
Snow Depth Not available.
6:57 AM 5:25 PM
Waxing Crescent, 6% visible
METAR KPIA 101654Z 31008G16KT 10SM CLR M09/M17 A3013 RMK AO2 SLP217 T10891167

10-Day Weather Forecast

Almanac

Astronomy

Feb. 10, 2016 Rise Set
Actual Time
Civil Twilight
Nautical Twilight
Astronomical Twilight
Moon
Length of Visible Light
Length of Day
Tomorrow will be .
, % of the Moon is Illuminated

Today's Extremes

State Highs State Lows

Community

WunderPhotos

Upload Photos

1,891,895 photos uploaded!

WunderBlog® & News

Nearby

Air Quality

  Air Quality AQ Index Pollutant
Not available.

Snow Depth

Station Depth Elevation

Earthquake Activity

City Distance Mag. Time & Date
Minimum magnitude displayed is 2.5.

Coastal Water Temperatures

Place Temperature

Stations

Nearby Weather Stations

Station Location Temp. Windchill Dew Point Humidity Wind Precip. Elev Updated Type
                   

Watches & Warnings

There are currently no watches in effect.